Time;durP1;ratioP1;P1;durP2;ratioP2;P2;SDS_P1;SDS_P2;PMS_P1;PMS_P2;Temp;Humidity;BMP_temperature;BMP_pressure;BME280_temperature;BME280_humidity;BME280_pressure;Samples;Min_cycle;Max_cycle;Signal;HPM_P1;HPM_P2
2022/06/08 00:01:40;;;;;;;4.23;3.00;;;;;;;;;;5001732;28;20207;-74
2022/06/08 00:04:07;;;;;;;3.80;2.97;;;;;;;;;;5002075;28;20175;-73
2022/06/08 00:06:33;;;;;;;2.93;2.60;;;;;;;;;;4997430;28;20176;-74
2022/06/08 00:08:59;;;;;;;3.13;2.73;;;;;;;;;;4993933;28;20206;-73
2022/06/08 00:11:26;;;;;;;3.37;2.87;;;;;;;;;;4988204;28;20199;-74
2022/06/08 00:13:52;;;;;;;4.87;3.07;;;;;;;;;;4991401;28;20191;-74
2022/06/08 00:16:19;;;;;;;3.90;3.13;;;;;;;;;;4995362;28;20198;-73
2022/06/08 00:18:45;;;;;;;3.70;3.30;;;;;;;;;;5000919;28;20183;-74
2022/06/08 00:21:12;;;;;;;3.40;2.90;;;;;;;;;;5015645;28;20215;-73
2022/06/08 00:23:38;;;;;;;3.87;2.93;;;;;;;;;;4997232;28;20632;-73
2022/06/08 00:26:05;;;;;;;3.30;3.00;;;;;;;;;;4992233;28;20263;-74
2022/06/08 00:28:31;;;;;;;4.03;3.07;;;;;;;;;;4987215;28;20195;-73
2022/06/08 00:30:58;;;;;;;6.10;3.00;;;;;;;;;;4998301;28;20211;-73
2022/06/08 00:33:25;;;;;;;4.07;3.10;;;;;;;;;;5006650;28;20573;-73
2022/06/08 00:35:51;;;;;;;4.57;3.30;;;;;;;;;;5013619;28;20187;-73
2022/06/08 00:38:17;;;;;;;3.83;3.20;;;;;;;;;;5009957;28;20184;-73
2022/06/08 00:41:00;;;;;;;3.67;2.97;;;;;;;;;;4990490;28;20224;-73
2022/06/08 00:43:27;;;;;;;3.73;3.10;;;;;;;;;;4992477;28;20184;-73
2022/06/08 00:45:53;;;;;;;3.87;2.80;;;;;;;;;;4998169;28;20684;-73
2022/06/08 00:48:19;;;;;;;3.13;2.67;;;;;;;;;;4995432;28;20267;-73
2022/06/08 00:50:47;;;;;;;3.63;3.00;;;;;;;;;;4970578;28;20307;-74
2022/06/08 00:53:15;;;;;;;4.30;2.90;;;;;;;;;;4985895;28;20263;-74
2022/06/08 00:55:42;;;;;;;3.50;3.20;;;;;;;;;;4987976;28;20590;-74
2022/06/08 00:58:16;;;;;;;3.57;3.10;;;18.20;99.90;;;;;;4991141;28;20399;-75
2022/06/08 01:00:42;;;;;;;3.63;3.20;;;17.90;99.90;;;;;;5002487;28;20212;-73
2022/06/08 01:03:12;;;;;;;4.20;3.20;;;17.90;99.90;;;;;;4996121;28;20186;-74
2022/06/08 01:05:47;;;;;;;3.40;2.90;;;17.90;99.90;;;;;;4991463;28;20202;-73
2022/06/08 01:08:47;;;;;;;3.23;2.90;;;17.80;99.90;;;;;;5014121;28;20646;-74
2022/06/08 01:11:28;;;;;;;4.87;3.00;;;17.80;99.90;;;;;;5016855;28;20199;-73
2022/06/08 01:14:00;;;;;;;3.90;2.90;;;17.80;99.90;;;;;;5006602;28;20184;-74
2022/06/08 01:16:26;;;;;;;3.40;2.70;;;17.80;99.90;;;;;;4991816;28;20326;-73
2022/06/08 01:18:54;;;;;;;4.50;3.20;;;17.80;99.90;;;;;;5006870;28;20218;-73
2022/06/08 01:21:23;;;;;;;4.13;3.17;;;17.80;99.90;;;;;;4990350;28;20235;-74
2022/06/08 01:24:01;;;;;;;4.17;3.10;;;17.80;99.90;;;;;;5010447;28;20190;-73
2022/06/08 01:26:52;;;;;;;3.67;3.30;;;17.70;99.90;;;;;;4995038;28;20172;-73
2022/06/08 01:29:25;;;;;;;5.40;3.27;;;17.60;99.90;;;;;;4995730;28;20180;-74
2022/06/08 01:32:12;;;;;;;3.13;2.83;;;17.60;99.90;;;;;;5004668;28;20195;-73
2022/06/08 01:35:00;;;;;;;4.07;3.00;;;17.60;99.90;;;;;;5016754;28;20293;-73
2022/06/08 01:38:00;;;;;;;3.90;3.10;;;17.70;99.90;;;;;;5022757;28;20215;-74
2022/06/08 01:40:39;;;;;;;9.20;3.27;;;17.70;99.90;;;;;;4993627;28;20294;-73
2022/06/08 01:43:12;;;;;;;5.10;3.17;;;17.70;99.90;;;;;;4990809;28;20290;-74
2022/06/08 01:46:04;;;;;;;4.63;3.00;;;17.60;99.90;;;;;;5006003;28;20183;-74
2022/06/08 01:48:44;;;;;;;3.87;3.10;;;17.60;99.90;;;;;;5028710;28;20186;-74
2022/06/08 01:51:22;;;;;;;4.70;2.83;;;17.60;99.90;;;;;;4977108;28;20300;-74
2022/06/08 01:54:02;;;;;;;3.43;3.00;;;17.50;99.90;;;;;;4994542;28;20790;-75
2022/06/08 01:56:54;;;;;;;4.03;2.97;;;17.50;99.90;;;;;;5002073;28;20206;-73
2022/06/08 01:59:48;;;;;;;4.37;2.70;;;17.50;99.90;;;;;;4978320;28;20189;-74
2022/06/08 02:02:47;;;;;;;5.57;3.20;;;17.50;99.90;;;;;;5008246;28;20180;-74
2022/06/08 02:05:25;;;;;;;3.97;3.03;;;17.50;99.90;;;;;;4992699;28;20188;-74
2022/06/08 02:08:14;;;;;;;4.60;2.83;;;17.40;99.90;;;;;;5018849;28;20176;-73
2022/06/08 02:11:17;;;;;;;4.37;2.60;;;17.40;99.90;;;;;;5018227;28;20567;-74
2022/06/08 02:14:15;;;;;;;2.87;2.63;;;17.40;99.90;;;;;;4981648;28;20201;-73
2022/06/08 02:16:55;;;;;;;3.97;3.37;;;17.30;99.90;;;;;;5013132;28;20226;-74
2022/06/08 02:19:40;;;;;;;3.77;3.03;;;17.30;99.90;;;;;;4988901;28;20185;-74
2022/06/08 02:22:14;;;;;;;3.60;2.87;;;17.30;99.90;;;;;;5019388;28;20238;-73
2022/06/08 02:24:49;;;;;;;7.20;3.23;;;17.30;99.90;;;;;;5008206;28;20190;-72
2022/06/08 02:27:23;;;;;;;3.73;2.70;;;17.30;99.90;;;;;;5004407;28;20178;-72
2022/06/08 02:30:02;;;;;;;5.63;3.00;;;17.30;99.90;;;;;;5025964;28;20238;-73
2022/06/08 02:35:24;;;;;;;3.20;2.90;;;17.30;99.90;;;;;;5000176;28;20172;-73
2022/06/08 02:37:54;;;;;;;5.40;3.10;;;17.30;99.90;;;;;;5008191;28;20199;-73
2022/06/08 02:40:31;;;;;;;4.93;3.30;;;17.20;99.90;;;;;;5002629;28;20215;-72
2022/06/08 02:43:08;;;;;;;4.87;3.27;;;17.20;99.90;;;;;;5002533;28;20180;-73
2022/06/08 02:45:40;;;;;;;5.33;3.50;;;17.20;99.90;;;;;;5024108;28;20179;-72
2022/06/08 02:48:10;;;;;;;5.13;3.20;;;17.10;99.90;;;;;;5018640;28;20270;-74
2022/06/08 02:50:39;;;;;;;5.20;3.40;;;17.10;99.90;;;;;;4976763;28;20236;-72
2022/06/08 02:53:29;;;;;;;8.87;3.43;;;17.10;99.90;;;;;;5008323;28;20275;-73
2022/06/08 02:56:25;;;;;;;2.93;2.63;;;17.00;99.90;;;;;;5010964;28;21882;-72
2022/06/08 02:59:26;;;;;;;3.90;2.50;;;17.00;99.90;;;;;;4986451;28;20195;-72
2022/06/08 03:02:25;;;;;;;4.73;2.30;;;16.90;99.90;;;;;;4992317;28;20230;-74
2022/06/08 03:05:25;;;;;;;3.87;2.30;;;16.90;99.90;;;;;;5002430;28;20203;-71
2022/06/08 03:08:03;;;;;;;3.87;2.50;;;16.90;99.90;;;;;;4988165;28;20192;-72
2022/06/08 03:10:39;;;;;;;3.13;2.20;;;16.90;99.90;;;;;;5004364;28;20577;-72
2022/06/08 03:13:27;;;;;;;3.33;2.50;;;16.80;99.90;;;;;;4997076;28;20188;-73
2022/06/08 03:15:56;;;;;;;2.90;2.60;;;16.80;99.90;;;;;;5010341;28;20179;-74
2022/06/08 03:18:23;;;;;;;4.57;2.60;;;16.80;99.90;;;;;;4994349;28;20578;-72
2022/06/08 03:20:50;;;;;;;3.07;2.50;;;16.80;99.90;;;;;;4972186;28;20317;-72
2022/06/08 03:23:19;;;;;;;4.00;2.30;;;16.80;99.90;;;;;;5006007;28;20184;-72
2022/06/08 03:25:46;;;;;;;2.67;2.30;;;16.80;99.90;;;;;;4989105;28;20181;-72
2022/06/08 03:28:14;;;;;;;4.33;2.60;;;16.80;99.90;;;;;;5001768;28;20559;-74
2022/06/08 03:30:42;;;;;;;3.00;2.60;;;16.80;99.90;;;;;;5009916;28;20568;-73
2022/06/08 03:33:09;;;;;;;4.73;2.40;;;16.80;99.90;;;;;;5001059;28;20670;-74
2022/06/08 03:35:36;;;;;;;2.30;2.10;;;16.80;99.90;;;;;;4999976;28;20194;-73
2022/06/08 03:38:03;;;;;;;3.77;2.30;;;16.80;99.90;;;;;;5011295;28;20606;-72
2022/06/08 03:40:32;;;;;;;2.73;2.30;;;16.80;99.90;;;;;;5000034;28;20218;-73
2022/06/08 03:42:58;;;;;;;4.60;2.50;;;16.80;99.90;;;;;;5001804;28;20248;-73
2022/06/08 03:45:27;;;;;;;4.30;2.30;;;16.90;99.90;;;;;;4994361;28;20274;-72
2022/06/08 03:47:53;;;;;;;3.53;2.37;;;16.90;99.90;;;;;;5000286;28;20213;-73
2022/06/08 03:50:25;;;;;;;3.23;2.43;;;16.90;99.90;;;;;;4999964;28;20694;-72
2022/06/08 03:53:01;;;;;;;3.93;2.50;;;17.00;99.90;;;;;;5002996;28;20188;-72
2022/06/08 03:55:29;;;;;;;4.10;2.53;;;17.00;99.90;;;;;;5006217;28;20302;-72
2022/06/08 03:57:57;;;;;;;5.03;2.60;;;17.00;99.90;;;;;;5011911;28;20217;-72
2022/06/08 04:00:24;;;;;;;4.73;2.43;;;17.00;99.90;;;;;;5026909;28;20218;-72
2022/06/08 04:03:00;;;;;;;3.73;2.40;;;17.10;99.90;;;;;;5012695;28;20187;-73
2022/06/08 04:05:28;;;;;;;2.80;2.60;;;17.20;99.90;;;;;;5003022;28;20194;-72
2022/06/08 04:07:56;;;;;;;5.03;2.53;;;17.20;99.90;;;;;;5015686;28;20195;-73
2022/06/08 04:10:22;;;;;;;4.40;2.80;;;17.30;99.90;;;;;;5009831;28;20295;-73
2022/06/08 04:12:52;;;;;;;4.83;2.50;;;17.40;99.90;;;;;;4994628;28;20552;-73
2022/06/08 04:18:03;;;;;;;4.13;3.10;;;17.40;99.90;;;;;;5007246;28;20180;-73
2022/06/08 04:20:29;;;;;;;2.97;2.67;;;17.40;99.90;;;;;;5011880;28;20220;-72
2022/06/08 04:22:56;;;;;;;3.53;2.60;;;17.50;99.90;;;;;;4988978;28;20251;-73
2022/06/08 04:25:30;;;;;;;6.47;2.93;;;17.50;99.90;;;;;;4989744;28;20180;-73
2022/06/08 04:27:58;;;;;;;4.13;2.50;;;17.50;99.90;;;;;;4993701;28;20613;-72
2022/06/08 04:30:26;;;;;;;4.30;2.60;;;17.50;99.90;;;;;;4996525;28;20277;-72
2022/06/08 04:32:52;;;;;;;6.63;2.80;;;17.50;99.90;;;;;;5013252;28;20279;-72
2022/06/08 04:35:19;;;;;;;3.90;2.60;;;17.50;99.90;;;;;;4981919;28;20780;-73
2022/06/08 04:37:45;;;;;;;5.17;3.00;;;17.50;99.90;;;;;;4981324;28;20191;-73
2022/06/08 04:40:14;;;;;;;4.10;3.07;;;17.50;99.90;;;;;;4991066;28;20576;-74
2022/06/08 04:42:42;;;;;;;5.07;3.10;;;17.50;99.90;;;;;;4991909;28;20171;-73
2022/06/08 04:45:11;;;;;;;5.57;3.23;;;17.50;99.90;;;;;;4989997;28;20192;-73
2022/06/08 04:47:37;;;;;;;5.17;3.10;;;17.50;99.90;;;;;;4991461;28;20278;-74
2022/06/08 04:50:06;;;;;;;7.37;3.70;;;17.50;99.90;;;;;;5008735;28;20210;-72
2022/06/08 04:52:33;;;;;;;3.87;3.30;;;17.50;99.90;;;;;;4996945;28;20187;-72
2022/06/08 04:54:59;;;;;;;3.60;3.30;;;17.40;99.90;;;;;;4988598;28;20195;-71
2022/06/08 04:57:26;;;;;;;6.77;3.37;;;17.40;99.90;;;;;;5004392;28;20197;-73
2022/06/08 04:59:54;;;;;;;5.80;3.10;;;17.50;99.90;;;;;;5016318;28;20235;-73
2022/06/08 05:05:18;;;;;;;3.83;3.03;;;17.70;99.90;;;;;;5001584;28;20191;-75
2022/06/08 05:07:44;;;;;;;4.53;2.87;;;17.80;99.90;;;;;;5002674;28;20206;-75
2022/06/08 05:10:11;;;;;;;2.87;2.60;;;17.90;99.90;;;;;;4995552;28;20200;-74
2022/06/08 05:12:39;;;;;;;4.73;2.73;;;17.90;99.90;;;;;;5009385;28;20311;-74
2022/06/08 05:15:09;;;;;;;5.53;2.90;;;18.00;99.90;;;;;;4996263;28;20192;-73
2022/06/08 05:17:35;;;;;;;7.10;2.80;;;18.00;99.90;;;;;;5002287;28;20212;-76
2022/06/08 05:20:03;;;;;;;7.80;2.87;;;18.00;99.90;;;;;;4986958;28;20294;-74
2022/06/08 05:22:30;;;;;;;4.47;2.70;;;18.00;99.90;;;;;;4995471;28;20181;-74
2022/06/08 05:24:57;;;;;;;3.13;2.60;;;18.10;99.90;;;;;;5015465;28;20182;-74
2022/06/08 05:27:23;;;;;;;5.67;2.90;;;18.20;99.90;;;;;;4987654;28;20180;-74
2022/06/08 05:29:49;;;;;;;3.93;2.70;;;18.30;99.90;;;;;;4971027;28;20204;-74
2022/06/08 05:32:15;;;;;;;3.87;2.57;;;18.40;99.90;;;;;;4985539;28;20263;-74
2022/06/08 05:34:41;;;;;;;5.73;2.63;;;18.50;99.90;;;;;;5011659;28;20603;-74
2022/06/08 05:37:09;;;;;;;4.43;2.47;;;18.70;99.90;;;;;;5011845;28;20560;-75
2022/06/08 05:39:35;;;;;;;3.97;2.67;;;18.70;99.90;;;;;;4996781;28;20203;-73
2022/06/08 05:42:02;;;;;;;4.17;2.50;;;18.80;99.90;;;;;;4985925;28;20740;-74
2022/06/08 05:44:29;;;;;;;4.23;2.43;;;18.90;99.90;;;;;;5005243;28;20564;-74
2022/06/08 05:46:57;;;;;;;3.57;2.30;;;18.90;99.90;;;;;;5009780;28;20531;-73
2022/06/08 05:49:23;;;;;;;4.00;2.67;;;18.90;99.90;;;;;;5003086;28;20178;-73
2022/06/08 05:51:53;;;;;;;3.43;2.37;;;18.90;99.90;;;;;;5000856;28;20573;-73
2022/06/08 05:54:24;;;;;;;5.10;2.30;;;18.80;99.90;;;;;;4997455;28;20198;-73
2022/06/08 05:56:50;;;;;;;5.77;2.50;;;18.70;99.90;;;;;;4994842;28;20204;-73
2022/06/08 05:59:17;;;;;;;3.80;2.37;;;18.70;99.90;;;;;;4996966;28;20179;-74
2022/06/08 06:01:43;;;;;;;5.13;2.80;;;18.70;99.90;;;;;;5006412;28;20223;-73
2022/06/08 06:04:09;;;;;;;5.23;2.47;;;18.70;99.90;;;;;;5019537;28;20187;-73
2022/06/08 06:06:38;;;;;;;5.93;2.40;;;18.60;99.90;;;;;;5007328;28;20317;-73
2022/06/08 06:09:05;;;;;;;3.87;2.40;;;18.60;99.90;;;;;;5004807;28;20190;-74
2022/06/08 06:11:32;;;;;;;5.87;2.63;;;18.60;99.90;;;;;;5006027;28;20203;-73
2022/06/08 06:13:59;;;;;;;5.40;2.50;;;18.60;99.90;;;;;;5004166;28;20193;-73
2022/06/08 06:16:25;;;;;;;6.37;2.40;;;18.60;99.90;;;;;;4991821;28;20294;-74
2022/06/08 06:18:54;;;;;;;5.53;2.60;;;18.70;99.90;;;;;;5000640;28;20187;-73
2022/06/08 06:21:43;;;;;;;6.73;2.40;;;18.60;99.90;;;;;;4998906;28;20214;-73
2022/06/08 06:24:36;;;;;;;4.60;2.40;;;18.40;99.90;;;;;;5008979;28;20198;-73
2022/06/08 06:27:21;;;;;;;6.20;2.60;;;18.40;99.90;;;;;;4998412;28;20328;-74
2022/06/08 06:30:06;;;;;;;5.40;2.40;;;18.30;99.90;;;;;;4998974;28;20200;-73
2022/06/08 06:32:43;;;;;;;6.43;2.50;;;18.30;99.90;;;;;;5014708;28;20879;-73
2022/06/08 06:35:18;;;;;;;4.60;2.40;;;18.20;99.90;;;;;;5003209;28;20194;-74
2022/06/08 06:37:45;;;;;;;3.97;2.30;;;18.20;99.90;;;;;;5014510;28;20186;-75
2022/06/08 06:40:11;;;;;;;5.70;2.50;;;18.10;99.90;;;;;;5014568;28;20206;-75
2022/06/08 06:42:39;;;;;;;6.77;2.53;;;18.20;99.90;;;;;;4998017;28;20681;-73
2022/06/08 06:45:24;;;;;;;4.57;2.40;;;18.20;99.90;;;;;;4996773;28;20200;-73
2022/06/08 06:47:58;;;;;;;5.63;2.40;;;18.20;99.90;;;;;;5001882;28;20637;-73
2022/06/08 06:50:25;;;;;;;2.53;2.27;;;18.30;99.90;;;;;;5008793;28;20202;-74
2022/06/08 06:52:53;;;;;;;4.80;2.20;;;18.30;99.90;;;;;;5008248;28;20179;-73
2022/06/08 06:55:23;;;;;;;4.03;2.30;;;18.40;99.90;;;;;;5012849;28;20206;-73
2022/06/08 06:57:51;;;;;;;4.37;2.40;;;18.60;99.90;;;;;;5013078;28;20188;-73
2022/06/08 07:00:21;;;;;;;5.13;2.47;;;18.70;99.90;;;;;;5018616;28;20597;-73
2022/06/08 07:02:47;;;;;;;4.07;2.13;;;18.70;99.90;;;;;;4992295;28;20215;-74
2022/06/08 07:05:23;;;;;;;3.30;2.47;;;18.70;99.90;;;;;;5000080;28;20192;-73
2022/06/08 07:07:49;;;;;;;4.03;2.10;;;18.70;99.90;;;;;;5003255;28;20195;-73
2022/06/08 07:10:16;;;;;;;4.00;2.40;;;18.70;99.90;;;;;;5006449;28;20246;-73
2022/06/08 07:12:43;;;;;;;5.63;2.53;;;18.60;99.90;;;;;;5016029;28;20187;-73
2022/06/08 07:15:12;;;;;;;3.73;2.20;;;18.50;99.90;;;;;;4993024;28;20179;-73
2022/06/08 07:17:38;;;;;;;5.47;2.37;;;18.50;99.90;;;;;;5011626;28;20192;-74
2022/06/08 07:20:05;;;;;;;6.30;2.40;;;18.60;99.90;;;;;;5009135;28;20231;-73
2022/06/08 07:22:33;;;;;;;5.80;2.27;;;18.60;99.90;;;;;;4993433;28;20219;-74
2022/06/08 07:24:59;;;;;;;6.27;2.43;;;18.70;99.90;;;;;;4995011;28;20753;-74
2022/06/08 07:27:24;;;;;;;6.03;2.50;;;18.70;99.90;;;;;;4970697;28;20227;-73
2022/06/08 07:29:51;;;;;;;5.27;2.20;;;18.70;99.90;;;;;;4997855;28;20200;-73
2022/06/08 07:32:17;;;;;;;5.53;2.60;;;18.80;99.90;;;;;;4998450;28;20269;-73
2022/06/08 07:34:43;;;;;;;5.10;2.40;;;18.90;99.90;;;;;;5005087;28;20195;-73
2022/06/08 07:37:08;;;;;;;5.57;2.23;;;19.00;99.90;;;;;;4996890;28;20183;-72
2022/06/08 07:39:35;;;;;;;6.70;2.47;;;19.00;99.90;;;;;;5008236;28;20255;-74
2022/06/08 07:42:01;;;;;;;4.20;2.33;;;19.20;99.90;;;;;;4999627;28;20290;-73
2022/06/08 07:44:27;;;;;;;3.80;2.13;;;19.20;99.90;;;;;;5002338;28;20677;-73
2022/06/08 07:46:52;;;;;;;5.03;2.40;;;19.30;99.90;;;;;;5006859;28;20184;-74
2022/06/08 07:49:36;;;;;;;5.13;2.27;;;19.50;99.90;;;;;;5009828;28;20279;-74
2022/06/08 07:52:17;;;;;;;6.07;2.37;;;19.70;99.90;;;;;;4999748;28;20290;-74
2022/06/08 07:54:45;;;;;;;9.97;2.50;;;20.00;99.90;;;;;;4987350;28;20303;-74
2022/06/08 07:57:37;;;;;;;3.57;2.30;;;20.40;97.00;;;;;;4996136;28;20202;-74
2022/06/08 08:00:04;;;;;;;3.63;1.90;;;20.60;93.40;;;;;;4978917;28;20207;-74
2022/06/08 08:02:38;;;;;;;5.40;2.10;;;20.60;88.20;;;;;;4992518;28;20191;-74
2022/06/08 08:05:06;;;;;;;3.07;2.13;;;20.70;91.40;;;;;;5022775;28;20180;-75
2022/06/08 08:07:32;;;;;;;4.90;2.00;;;20.80;89.50;;;;;;5004194;28;20199;-74
2022/06/08 08:09:58;;;;;;;3.80;1.80;;;20.90;88.00;;;;;;5009978;28;20624;-74
2022/06/08 08:12:23;;;;;;;4.70;2.20;;;21.10;90.50;;;;;;5006939;28;20552;-76
2022/06/08 08:14:49;;;;;;;7.50;2.37;;;21.30;87.00;;;;;;5002321;28;20187;-73
2022/06/08 08:17:15;;;;;;;4.27;1.90;;;21.50;84.30;;;;;;4994784;28;20251;-74
2022/06/08 08:19:41;;;;;;;4.63;2.40;;;21.70;83.00;;;;;;4995220;28;20261;-75
2022/06/08 08:22:09;;;;;;;4.33;2.10;;;21.80;79.90;;;;;;5021910;28;20627;-74
2022/06/08 08:24:34;;;;;;;4.13;2.00;;;21.90;80.60;;;;;;5002260;28;20192;-73
2022/06/08 08:27:01;;;;;;;3.67;2.20;;;22.10;78.90;;;;;;5002719;28;20190;-74
2022/06/08 08:29:27;;;;;;;4.13;2.10;;;22.10;76.00;;;;;;5000752;28;20180;-73
2022/06/08 08:31:52;;;;;;;5.23;2.10;;;22.20;74.70;;;;;;4997644;28;20196;-73
2022/06/08 08:34:18;;;;;;;3.80;2.30;;;22.30;73.80;;;;;;4996066;28;20193;-74
2022/06/08 08:36:45;;;;;;;6.07;2.00;;;22.40;71.10;;;;;;4997351;28;20267;-73
2022/06/08 08:39:11;;;;;;;4.47;1.80;;;22.50;70.30;;;;;;5004728;28;20182;-74
2022/06/08 08:44:42;;;;;;;3.97;1.80;;;22.60;70.50;;;;;;5006044;28;20203;-73
2022/06/08 08:47:33;;;;;;;5.50;1.97;;;22.70;68.80;;;;;;5006272;28;20192;-73
2022/06/08 08:50:37;;;;;;;4.00;1.50;;;22.60;66.60;;;;;;5007985;28;20306;-73
2022/06/08 08:53:09;;;;;;;3.97;1.80;;;22.50;67.20;;;;;;4970640;28;20259;-74
2022/06/08 08:55:39;;;;;;;4.13;2.03;;;22.50;66.80;;;;;;4998151;28;20243;-74
2022/06/08 08:58:15;;;;;;;6.47;2.10;;;22.40;67.20;;;;;;4993955;28;20563;-73
2022/06/08 09:00:49;;;;;;;3.23;1.90;;;22.40;66.90;;;;;;4994498;28;20215;-74
2022/06/08 09:03:21;;;;;;;3.60;1.87;;;22.30;67.70;;;;;;4996667;28;20171;-74
2022/06/08 09:05:51;;;;;;;4.17;1.90;;;22.30;67.40;;;;;;4994936;28;20191;-74
2022/06/08 09:08:19;;;;;;;7.07;2.30;;;22.40;69.40;;;;;;4991766;28;20179;-74
2022/06/08 09:10:45;;;;;;;7.57;2.20;;;22.40;68.60;;;;;;4993972;28;20206;-74
2022/06/08 09:13:34;;;;;;;5.60;2.00;;;22.40;69.50;;;;;;5000548;28;20622;-73
2022/06/08 09:16:00;;;;;;;4.20;1.90;;;22.40;68.70;;;;;;4990954;28;20223;-73
2022/06/08 09:18:36;;;;;;;7.60;2.00;;;22.50;68.20;;;;;;5010752;28;20191;-73
2022/06/08 09:21:27;;;;;;;5.53;2.10;;;22.50;67.70;;;;;;4985493;28;20210;-73
2022/06/08 09:24:15;;;;;;;4.50;1.90;;;22.60;68.00;;;;;;5000936;28;20246;-74
2022/06/08 09:26:41;;;;;;;3.03;1.63;;;22.70;65.50;;;;;;4988771;28;20180;-76
2022/06/08 09:29:12;;;;;;;5.27;1.90;;;22.70;64.50;;;;;;4998150;28;20183;-75
2022/06/08 09:31:39;;;;;;;3.17;1.40;;;22.80;64.40;;;;;;4999257;28;20180;-73
2022/06/08 09:34:19;;;;;;;3.33;1.50;;;22.90;62.10;;;;;;4987230;28;20218;-73
2022/06/08 09:36:46;;;;;;;4.97;1.60;;;22.80;60.40;;;;;;4990929;28;20703;-74
2022/06/08 09:39:16;;;;;;;2.93;1.50;;;22.80;60.30;;;;;;4989845;28;20183;-73
2022/06/08 09:41:50;;;;;;;2.47;1.37;;;22.80;60.80;;;;;;5023777;28;20628;-74
2022/06/08 09:44:22;;;;;;;4.63;1.60;;;22.80;60.80;;;;;;5010008;28;20634;-73
2022/06/08 09:52:44;;;;;;;4.47;1.63;;;22.90;60.10;;;;;;5013004;28;20184;-76
2022/06/08 09:55:33;;;;;;;3.00;1.50;;;22.90;61.00;;;;;;5003557;28;20696;-76
2022/06/08 09:58:23;;;;;;;3.87;1.53;;;23.00;60.30;;;;;;4985578;28;20212;-75
2022/06/08 10:01:17;;;;;;;6.93;1.30;;;23.20;59.00;;;;;;5005049;28;20207;-75
2022/06/08 10:03:55;;;;;;;5.63;1.50;;;23.20;57.10;;;;;;4982078;28;20279;-73
2022/06/08 10:06:55;;;;;;;4.33;1.50;;;23.30;57.90;;;;;;4991457;28;20218;-74
2022/06/08 10:09:29;;;;;;;4.87;1.50;;;23.50;56.80;;;;;;4999843;28;20272;-75
2022/06/08 10:12:14;;;;;;;3.40;1.60;;;23.60;56.10;;;;;;4995852;28;20191;-73
2022/06/08 10:15:03;;;;;;;3.30;1.50;;;23.60;56.50;;;;;;5002968;28;20191;-75
2022/06/08 10:17:39;;;;;;;3.37;1.60;;;23.80;56.20;;;;;;4993977;28;20188;-77
2022/06/08 10:20:11;;;;;;;4.40;1.60;;;23.90;56.90;;;;;;5005727;28;20629;-74
2022/06/08 10:22:54;;;;;;;4.40;1.60;;;24.10;56.30;;;;;;5008708;28;20819;-75
2022/06/08 10:25:29;;;;;;;3.50;1.43;;;24.20;55.50;;;;;;4989132;28;20626;-75
2022/06/08 10:27:59;;;;;;;4.70;1.30;;;24.40;55.30;;;;;;4977943;28;20186;-74
2022/06/08 10:30:44;;;;;;;5.30;1.50;;;24.60;54.60;;;;;;5001385;28;20195;-75
2022/06/08 10:33:46;;;;;;;5.60;1.40;;;24.80;54.20;;;;;;5003392;28;20181;-74
2022/06/08 10:36:12;;;;;;;4.13;1.40;;;24.90;52.80;;;;;;4987424;28;20214;-76
2022/06/08 10:38:44;;;;;;;3.43;1.30;;;24.90;53.30;;;;;;5009853;28;20238;-76
2022/06/08 10:42:39;;;;;;;4.70;1.47;;;25.10;52.60;;;;;;4987077;28;20216;-76
2022/06/08 10:43:58;;;;;;;2.47;1.37;;;25.00;53.00;;;;;;4995787;28;20183;-75
2022/06/08 10:46:45;;;;;;;2.33;1.30;;;25.00;53.10;;;;;;5007162;28;20260;-75
2022/06/08 10:49:30;;;;;;;4.37;1.30;;;25.10;52.70;;;;;;4983165;28;20177;-75
2022/06/08 10:52:14;;;;;;;3.20;1.60;;;25.30;51.80;;;;;;4999559;28;20193;-74
2022/06/08 10:54:54;;;;;;;2.83;1.30;;;25.40;51.80;;;;;;4998901;28;20188;-75
2022/06/08 10:57:35;;;;;;;3.03;1.20;;;25.60;51.90;;;;;;5002275;28;20218;-75
2022/06/08 11:00:19;;;;;;;2.83;1.30;;;25.70;51.90;;;;;;4999972;28;20274;-74
2022/06/08 11:02:53;;;;;;;3.40;1.20;;;25.80;50.80;;;;;;5015629;28;20194;-74
2022/06/08 11:05:36;;;;;;;2.50;1.20;;;26.00;50.80;;;;;;4989677;28;20187;-74
2022/06/08 11:08:04;;;;;;;3.10;1.30;;;26.00;50.20;;;;;;5011153;28;20261;-75
2022/06/08 11:10:53;;;;;;;2.67;1.40;;;26.20;50.60;;;;;;5003091;28;20200;-75
2022/06/08 11:13:22;;;;;;;2.50;1.13;;;26.40;49.10;;;;;;5002487;28;20229;-75
2022/06/08 11:15:53;;;;;;;4.17;1.30;;;26.60;49.10;;;;;;5011577;28;20203;-74
2022/06/08 11:18:28;;;;;;;2.57;1.30;;;26.60;49.50;;;;;;4999453;28;20688;-76
2022/06/08 11:21:23;;;;;;;4.43;1.23;;;26.80;49.60;;;;;;5002555;28;20221;-75
2022/06/08 11:24:03;;;;;;;2.87;1.23;;;27.20;48.80;;;;;;4998213;28;20231;-75
2022/06/08 11:26:38;;;;;;;2.70;1.17;;;27.30;47.00;;;;;;4993250;28;20413;-77
2022/06/08 11:29:16;;;;;;;3.77;1.37;;;27.30;46.40;;;;;;4988119;28;20184;-75
2022/06/08 11:31:42;;;;;;;2.73;1.17;;;27.30;46.60;;;;;;4991770;28;20195;-75
2022/06/08 11:34:20;;;;;;;3.33;1.40;;;27.30;45.70;;;;;;4993716;28;20846;-76
2022/06/08 11:37:06;;;;;;;4.07;1.10;;;27.50;45.70;;;;;;5004156;28;20672;-75
2022/06/08 11:39:59;;;;;;;4.80;1.30;;;27.70;43.50;;;;;;4999779;28;20286;-76
2022/06/08 11:42:32;;;;;;;2.73;1.20;;;28.10;43.40;;;;;;4994737;28;20215;-74
2022/06/08 11:44:59;;;;;;;4.20;1.30;;;28.40;43.70;;;;;;4994823;28;20215;-74
2022/06/08 11:47:48;;;;;;;3.10;1.20;;;28.90;44.10;;;;;;4996333;28;20180;-76
2022/06/08 11:50:18;;;;;;;3.77;1.40;;;28.80;43.00;;;;;;4996939;28;20196;-76
2022/06/08 11:52:58;;;;;;;3.80;1.17;;;28.50;43.60;;;;;;4979277;28;20279;-77
2022/06/08 11:55:28;;;;;;;2.60;1.33;;;28.20;43.70;;;;;;5004512;28;20273;-75
2022/06/08 11:58:10;;;;;;;2.67;1.20;;;27.80;43.90;;;;;;4991839;28;20226;-73
2022/06/08 12:00:55;;;;;;;3.50;1.10;;;27.50;44.60;;;;;;4984378;28;20212;-74
2022/06/08 12:03:44;;;;;;;3.10;1.10;;;27.30;44.50;;;;;;4991608;28;20187;-75
2022/06/08 12:06:33;;;;;;;2.97;1.20;;;27.70;44.60;;;;;;4988827;28;20183;-74
2022/06/08 12:09:06;;;;;;;3.00;1.23;;;27.90;43.80;;;;;;4992854;28;20258;-74
2022/06/08 12:11:38;;;;;;;2.30;1.27;;;27.80;44.90;;;;;;4996568;28;20262;-74
2022/06/08 12:14:15;;;;;;;2.47;1.03;;;27.50;45.00;;;;;;5004586;28;20183;-74
2022/06/08 12:16:58;;;;;;;3.37;1.50;;;27.30;45.10;;;;;;4976027;28;20232;-75
2022/06/08 12:19:30;;;;;;;2.07;1.00;;;27.00;44.50;;;;;;4989003;28;20183;-74
2022/06/08 12:22:20;;;;;;;4.27;1.00;;;26.70;44.50;;;;;;4990397;28;20221;-74
2022/06/08 12:25:18;;;;;;;2.47;1.20;;;26.60;44.30;;;;;;4990887;28;20187;-74
2022/06/08 12:27:56;;;;;;;1.87;1.03;;;26.50;44.90;;;;;;5012252;28;20734;-73
2022/06/08 12:30:27;;;;;;;2.27;1.20;;;26.50;45.40;;;;;;4992715;28;20669;-74
2022/06/08 12:33:01;;;;;;;3.33;1.40;;;26.20;45.50;;;;;;4998844;28;20649;-73
2022/06/08 12:35:33;;;;;;;2.53;1.30;;;26.10;46.10;;;;;;5012453;28;20206;-73
2022/06/08 12:38:14;;;;;;;3.30;1.40;;;25.90;46.40;;;;;;4992068;28;20394;-73
2022/06/08 12:40:41;;;;;;;3.83;1.20;;;25.90;46.40;;;;;;4991718;28;20226;-74
2022/06/08 12:43:07;;;;;;;3.90;1.27;;;26.00;46.70;;;;;;4999282;28;20183;-73
2022/06/08 12:45:37;;;;;;;2.80;1.00;;;26.10;46.40;;;;;;4993664;28;20218;-73
2022/06/08 12:48:32;;;;;;;2.90;1.10;;;26.10;46.60;;;;;;4999474;28;20266;-73
2022/06/08 12:50:58;;;;;;;3.40;1.27;;;26.10;46.50;;;;;;4988326;28;20210;-73
2022/06/08 12:53:25;;;;;;;2.90;1.13;;;26.00;46.70;;;;;;5009808;28;20191;-74
2022/06/08 12:55:54;;;;;;;3.40;1.20;;;25.80;46.90;;;;;;4990596;28;20684;-74
2022/06/08 12:58:23;;;;;;;1.73;1.10;;;25.70;47.20;;;;;;4987558;28;20217;-73
2022/06/08 13:00:54;;;;;;;3.30;1.50;;;25.50;47.10;;;;;;4989312;28;20207;-74
2022/06/08 13:03:25;;;;;;;2.10;1.10;;;25.30;47.20;;;;;;4990385;28;20187;-73
2022/06/08 13:05:53;;;;;;;3.77;1.30;;;25.20;47.10;;;;;;4990459;28;20181;-74
2022/06/08 13:08:23;;;;;;;1.33;0.90;;;25.10;46.80;;;;;;4988919;28;20267;-74
2022/06/08 13:10:51;;;;;;;2.13;1.27;;;25.20;47.10;;;;;;4997937;28;20215;-74
2022/06/08 13:13:25;;;;;;;2.60;1.30;;;25.20;47.20;;;;;;4992350;28;20716;-74
2022/06/08 13:15:53;;;;;;;3.03;1.10;;;25.30;47.10;;;;;;5010555;28;20183;-74
2022/06/08 13:18:25;;;;;;;2.80;1.30;;;25.30;46.20;;;;;;4997577;28;20189;-74
2022/06/08 13:20:54;;;;;;;5.70;1.37;;;25.20;46.30;;;;;;4994786;28;20212;-73
2022/06/08 13:23:22;;;;;;;3.17;1.23;;;24.90;46.60;;;;;;5006730;28;20185;-73
2022/06/08 13:25:52;;;;;;;4.27;1.20;;;24.80;47.20;;;;;;4993733;28;20195;-74
2022/06/08 13:28:22;;;;;;;2.87;1.30;;;24.70;47.40;;;;;;5009198;28;20185;-73
2022/06/08 13:30:50;;;;;;;3.10;1.10;;;24.60;47.20;;;;;;5000991;28;20233;-73
2022/06/08 13:36:24;;;;;;;1.97;1.20;;;24.50;48.10;;;;;;4992952;28;20189;-74
2022/06/08 13:39:06;;;;;;;2.40;1.20;;;24.40;48.40;;;;;;4992810;28;20195;-72
2022/06/08 13:41:32;;;;;;;2.97;1.20;;;24.40;48.50;;;;;;4989015;28;20793;-74
2022/06/08 13:43:59;;;;;;;2.50;1.20;;;24.30;49.30;;;;;;4994801;28;20257;-72
2022/06/08 13:46:31;;;;;;;2.07;1.20;;;24.20;50.30;;;;;;4992374;28;20199;-72
2022/06/08 13:48:59;;;;;;;2.47;1.17;;;24.10;49.50;;;;;;4993543;28;20215;-75